Fu Ning Wan — VRDN9 — position and weather

sailwx.info

Track history (hours):
 
Tides and Currents Weather Stations Pressure Air Temp Water Temp Dewpoint Dewpoint Depression Visibility Wind Speed Wind Dir Waves Ship Positions

Fu Ning Wan

Last reported at 2015-Apr-10 23:30 UTC. Time now 2015-Apr-19 17:35 UTC.
Position S 26°39' E 153°14'.
Warning: this ship's position is 8 days out of date.

Length 107 m; draft 5.5 m.

Type: Tanker. MMSI: 477003600.

Date/timePositionNaut miles runAvg speedWind from/ knotsBaromVisibWave heightAir tempDewpointWater temp
2015-Apr-10 23:30S 26°39' E 153°14'1010.4
2015-Apr-10 22:33S 26°49' E 153°10'1111.4
2015-Apr-10 21:33S 26°60' E 153°14'1211.7
2015-Apr-10 20:33S 27°10' E 153°20'1312.6
2015-Apr-10 19:33S 27°20' E 153°12'4 3.4
2015-Apr-10 18:25S 27°23' E 153°09'0 0.0
2015-Apr-10 17:22S 27°23' E 153°09'0 0.0
2015-Apr-10 16:31S 27°23' E 153°09'0 0.0
2015-Apr-10 15:31S 27°23' E 153°09'0 0.0
2015-Apr-10 14:31S 27°23' E 153°09'0 0.0
2015-Apr-10 13:04S 27°23' E 153°09'0 0.0
2015-Apr-10 12:28S 27°23' E 153°09'0 0.0
2015-Apr-10 10:07S 27°23' E 153°09'0 0.0
2015-Apr-10 08:19S 27°23' E 153°09'0 0.0
2015-Apr-10 07:22S 27°23' E 153°09'0 0.0
2015-Apr-10 00:21S 27°23' E 153°09'3 4.2
2015-Apr-09 23:34S 27°21' E 153°11'1010.4
2015-Apr-09 22:33S 27°12' E 153°17'8 8.0
2015-Apr-09 21:33S 27°04' E 153°18'10 9.6
2015-Apr-09 20:33S 26°56' E 153°12'9 8.6
2015-Apr-09 19:33S 26°47' E 153°11'6 6.2
2015-Apr-09 18:33S 26°41' E 153°12'7 6.7
2015-Apr-09 17:34S 26°35' E 153°16'  
Track history (hours):
 
Tides and Currents Weather Stations Pressure Air Temp Water Temp Dewpoint Dewpoint Depression Visibility Wind Speed Wind Dir Waves Ship Positions

Fu Ning Wan

Last reported at 2015-Apr-10 23:30 UTC. Time now 2015-Apr-19 17:35 UTC.
Position S 26°39' E 153°14'.
Warning: this ship's position is 8 days out of date.

Length 107 m; draft 5.5 m.

Type: Tanker. MMSI: 477003600.

Date/timePositionNaut miles runAvg speedWind from/ knotsBaromVisibWave heightAir tempDewpointWater temp
2015-Apr-10 23:30S 26°39' E 153°14'1010.4
2015-Apr-10 22:33S 26°49' E 153°10'1111.4
2015-Apr-10 21:33S 26°60' E 153°14'1211.7
2015-Apr-10 20:33S 27°10' E 153°20'1312.6
2015-Apr-10 19:33S 27°20' E 153°12'4 3.4
2015-Apr-10 18:25S 27°23' E 153°09'0 0.0
2015-Apr-10 17:22S 27°23' E 153°09'0 0.0
2015-Apr-10 16:31S 27°23' E 153°09'0 0.0
2015-Apr-10 15:31S 27°23' E 153°09'0 0.0
2015-Apr-10 14:31S 27°23' E 153°09'0 0.0
2015-Apr-10 13:04S 27°23' E 153°09'0 0.0
2015-Apr-10 12:28S 27°23' E 153°09'0 0.0
2015-Apr-10 10:07S 27°23' E 153°09'0 0.0
2015-Apr-10 08:19S 27°23' E 153°09'0 0.0
2015-Apr-10 07:22S 27°23' E 153°09'0 0.0
2015-Apr-10 00:21S 27°23' E 153°09'3 4.2
2015-Apr-09 23:34S 27°21' E 153°11'1010.4
2015-Apr-09 22:33S 27°12' E 153°17'8 8.0
2015-Apr-09 21:33S 27°04' E 153°18'10 9.6
2015-Apr-09 20:33S 26°56' E 153°12'9 8.6
2015-Apr-09 19:33S 26°47' E 153°11'6 6.2
2015-Apr-09 18:33S 26°41' E 153°12'7 6.7
2015-Apr-09 17:34S 26°35' E 153°16'  

Dump ship's entire track history